Wednesday, April 23, 2014
11:51 UTC
  |  Log In   |  Register Free
Airport Search:

New River Valley Airport
(KPSK)

New River Valley Airport Diagram
No Airport Diagram Available

FAA data valid effective April 3, 2014 until May 29, 2014 (unless otherwise noted).

 
 
 
 
 
 
 
 
 
 
 
 
 
 

Current Aviation Weather for New River Valley Airport (KPSK)

The most recent METAR observation for KPSK was updated at: 1055 UTC
METAR Summary (Translated METAR)
KPSK
231055Z AUTO 28009G14KT 10SM CLR 06/00 A2987 RMK AO2 T00621005
KBCB
(13.6 nm NE from KPSK)
231035Z AUTO 30010G17KT 10SM CLR 07/01 A2986 RMK AO2
TAF Summary (Translated TAF)
KBCB
(13.6 nm NE from KPSK)
230539Z 2306/2406 27010G20KT P6SM SKC FM231500 30016G26KT P6SM SKC FM240000 32010KT P6SM SKC
  Airport Weather Conditions for KPSK

 Current Weather at PSK
44° F
Fair
West winds at 11.5 mph
PSK NOAA Radar

Pressure: 29.86 in
Humidity: 60%
Wind: from the West at 11.5 gusting to 17.3 MPH (10 gusting to 15 KT)
Dew Point: 31.1°F
Visibility: 10.00 mi


Airport Weather Forecast for KPSK

Translated METAR and TAF for KPSK
Translated METAR for KPSK (1151 UTC 23 April 2014)
found at http://aviationweather.gov/adds/metars/
 
METAR text: KPSK 231135Z AUTO 30013G18KT 10SM CLR 06/00 A2990 RMK AO2 T00591002
Conditions at: KPSK (DUBLIN/NEW RIV , VA, US) observed 1135 UTC 23 April 2014
Temperature: 5.9°C (43°F)
Dewpoint: -0.2°C (32°F) [RH = 65%]
Pressure (altimeter): 29.90 inches Hg (1012.6 mb)
Winds: from the WNW (300 degrees) at 15 MPH (13 knots; 6.8 m/s)
gusting to 21 MPH (18 knots; 9.4 m/s)
Visibility: 10 or more miles (16+ km)
Ceiling: at least 12,000 feet AGL
Clouds: sky clear below 12,000 feet AGL
Weather: automated observation with no human augmentation;
there may or may not be significant weather present at this time
Translated TAF for KPSK

There is no translated TAF available for this airport

Find All Airport Services Find A Hotel Find A Rental Car Find A Golf Course Find A Restaurant $100 Hamburger



FBO's on the Field
FBO Company Facility Photos Services Transportation Aviation Fuel Prices: Prices include tax
Catering Weather Repair Courtesy Rental Type 100LL JetA JetA+ MOGAS 8087
 
New River Valley Airport

This FBO has not yet been rated
FS:Avfuel
Last Updated: Mar-18
Login to update fuel prices
SS:
Contact New River Valley AirportMore FBO Information
 
Add another FBO Facility Photos Catering Weather Repair Courtesy Rental Type 100LL JetA JetA+ MOGAS 8087
Services Transportation Aviation Fuel Prices: Prices include tax


GlobalAir.com Airport Resource Center model-print
model-print
model-print
model-print